createdAt,value
2018-11-27T00:01:30.947Z,14.93
2018-11-27T00:04:00.064Z,12.03
2018-11-27T00:06:28.878Z,11.67
2018-11-27T00:08:57.714Z,12.27
2018-11-27T00:11:26.545Z,12.80
2018-11-27T00:13:56.328Z,11.70
2018-11-27T00:16:25.119Z,12.27
2018-11-27T00:18:54.315Z,13.33
2018-11-27T00:21:23.152Z,14.33
2018-11-27T00:23:52.191Z,11.63
2018-11-27T00:26:21.460Z,13.30
2018-11-27T00:28:50.279Z,14.20
2018-11-27T00:31:20.061Z,13.77
2018-11-27T00:33:49.346Z,14.60
2018-11-27T00:36:18.172Z,14.97
2018-11-27T00:38:47.002Z,13.43
2018-11-27T00:41:15.854Z,13.77
2018-11-27T00:43:44.717Z,12.33
2018-11-27T00:46:13.566Z,13.17
2018-11-27T00:48:42.949Z,13.27
2018-11-27T00:51:12.552Z,12.53
2018-11-27T00:53:41.630Z,13.07
2018-11-27T00:56:10.538Z,12.83
2018-11-27T00:58:40.140Z,12.73
2018-11-27T01:01:09.005Z,13.63
2018-11-27T01:03:39.591Z,12.30
2018-11-27T01:06:08.408Z,11.67
2018-11-27T01:08:37.472Z,13.40
2018-11-27T01:11:06.308Z,13.83
2018-11-27T01:13:35.158Z,13.63
2018-11-27T01:16:04.568Z,13.00
2018-11-27T01:18:34.179Z,13.40
2018-11-27T01:21:04.143Z,10.77
2018-11-27T01:23:32.972Z,12.63
2018-11-27T01:26:02.100Z,13.03
2018-11-27T01:28:30.967Z,12.67
2018-11-27T01:31:00.349Z,12.93
2018-11-27T01:33:29.186Z,11.10
2018-11-27T01:35:58.954Z,10.47
2018-11-27T01:38:27.772Z,12.63
2018-11-27T01:40:56.607Z,13.17
2018-11-27T01:43:25.467Z,9.23
2018-11-27T01:45:54.967Z,11.53
2018-11-27T01:48:23.888Z,12.53
2018-11-27T01:50:53.048Z,11.63
2018-11-27T01:53:21.879Z,12.33
2018-11-27T01:55:50.702Z,12.63
2018-11-27T01:58:19.621Z,11.60
2018-11-27T02:00:48.693Z,12.97
2018-11-27T02:03:17.484Z,12.63
2018-11-27T02:05:46.330Z,15.03
2018-11-27T02:08:15.158Z,12.47
2018-11-27T02:10:43.980Z,11.43
2018-11-27T02:13:12.833Z,11.07
2018-11-27T02:15:41.628Z,11.27
2018-11-27T02:18:10.403Z,11.17
2018-11-27T02:20:39.174Z,11.87
2018-11-27T02:23:07.945Z,9.50
2018-11-27T02:25:36.723Z,11.20
2018-11-27T02:28:06.068Z,9.73
2018-11-27T02:30:34.936Z,10.10
2018-11-27T02:33:03.787Z,11.37
2018-11-27T02:35:32.591Z,10.23
2018-11-27T02:38:01.428Z,11.33
2018-11-27T02:40:30.230Z,10.63
2018-11-27T02:42:59.077Z,11.97
2018-11-27T02:45:27.916Z,11.23
2018-11-27T02:47:56.746Z,10.00
2018-11-27T02:50:26.302Z,11.23
2018-11-27T02:52:55.424Z,12.30
2018-11-27T02:55:25.521Z,12.33
2018-11-27T02:57:54.640Z,11.27
2018-11-27T03:00:24.708Z,10.43
2018-11-27T03:02:53.511Z,11.10
2018-11-27T03:05:28.739Z,10.70
2018-11-27T03:07:57.506Z,10.77
2018-11-27T03:10:26.271Z,12.30
2018-11-27T03:12:55.206Z,11.50
2018-11-27T03:15:24.241Z,13.23
2018-11-27T03:17:53.487Z,12.93
2018-11-27T03:20:22.331Z,13.00
2018-11-27T03:22:51.282Z,10.50
2018-11-27T03:25:21.058Z,12.40
2018-11-27T03:27:51.218Z,12.00
2018-11-27T03:30:22.709Z,13.77
2018-11-27T03:32:51.796Z,11.80
2018-11-27T03:35:22.520Z,12.03
2018-11-27T03:37:51.453Z,13.70
2018-11-27T03:40:27.035Z,11.23
2018-11-27T03:42:55.946Z,12.90
2018-11-27T03:45:25.377Z,11.90
2018-11-27T03:47:54.850Z,12.33
2018-11-27T03:50:26.738Z,11.63
2018-11-27T03:52:55.617Z,10.73
2018-11-27T03:55:24.480Z,14.30
2018-11-27T03:57:54.384Z,13.33
2018-11-27T04:00:25.996Z,12.60
2018-11-27T04:03:10.990Z,17.20
2018-11-27T04:05:40.238Z,14.27
2018-11-27T04:08:09.986Z,13.53
2018-11-27T04:10:40.765Z,12.60
2018-11-27T04:13:09.688Z,14.13
2018-11-27T04:15:38.532Z,14.13
2018-11-27T04:18:07.618Z,11.93
2018-11-27T04:20:36.442Z,14.63
2018-11-27T04:23:05.605Z,14.27
2018-11-27T04:25:34.414Z,14.17
2018-11-27T04:28:03.207Z,12.87
2018-11-27T04:30:32.010Z,13.40
2018-11-27T04:33:00.788Z,16.47
2018-11-27T04:35:29.597Z,14.70
2018-11-27T04:37:59.582Z,14.80
2018-11-27T04:40:27.206Z,14.67
2018-11-27T04:42:56.058Z,15.53
2018-11-27T04:45:25.805Z,14.83
2018-11-27T04:47:54.606Z,14.57
2018-11-27T04:50:23.438Z,13.47
2018-11-27T04:52:52.298Z,14.77
2018-11-27T04:55:21.714Z,14.90
2018-11-27T04:57:52.489Z,13.03
2018-11-27T05:00:25.414Z,12.80
2018-11-27T05:02:54.239Z,14.23
2018-11-27T05:05:23.068Z,12.80
2018-11-27T05:07:52.130Z,13.27
2018-11-27T05:10:22.014Z,11.47
2018-11-27T05:12:50.854Z,12.53
2018-11-27T05:15:20.479Z,14.73
2018-11-27T05:17:53.391Z,13.40
2018-11-27T05:20:22.205Z,12.93
2018-11-27T05:22:51.068Z,14.17
2018-11-27T05:25:20.235Z,13.70
2018-11-27T05:27:53.083Z,13.33
2018-11-27T05:30:22.892Z,12.47
2018-11-27T05:32:51.691Z,11.53
2018-11-27T05:35:23.754Z,11.70
2018-11-27T05:37:52.859Z,13.07
2018-11-27T05:40:22.704Z,11.53
2018-11-27T05:42:56.270Z,13.43
2018-11-27T05:45:25.659Z,13.07
2018-11-27T05:47:54.984Z,13.30
2018-11-27T05:50:24.115Z,12.00
2018-11-27T05:52:52.919Z,11.23
2018-11-27T05:55:21.728Z,12.17
2018-11-27T05:57:51.978Z,11.20
2018-11-27T06:00:22.914Z,12.47
2018-11-27T06:02:55.719Z,12.97
2018-11-27T06:05:24.979Z,10.37
2018-11-27T06:07:53.857Z,12.07
2018-11-27T06:10:23.488Z,11.33
2018-11-27T06:12:52.372Z,11.63
2018-11-27T06:15:24.048Z,12.07
2018-11-27T06:17:53.986Z,10.83
2018-11-27T06:20:23.197Z,12.47
2018-11-27T06:22:52.589Z,10.67
2018-11-27T06:25:24.372Z,10.70
2018-11-27T06:27:55.524Z,10.03
2018-11-27T06:30:25.442Z,11.17
2018-11-27T06:32:54.741Z,11.30
2018-11-27T06:35:32.016Z,11.30
2018-11-27T06:38:01.356Z,11.80
2018-11-27T06:40:34.595Z,11.63
2018-11-27T06:43:06.719Z,10.77
2018-11-27T06:45:36.510Z,10.47
2018-11-27T06:48:06.526Z,11.10
2018-11-27T06:50:37.355Z,10.47
2018-11-27T06:53:07.332Z,11.50
2018-11-27T06:55:36.828Z,9.80
2018-11-27T06:58:07.057Z,10.30
2018-11-27T07:00:36.038Z,10.50
2018-11-27T07:03:08.810Z,10.77
2018-11-27T07:05:37.814Z,9.53
2018-11-27T07:08:08.032Z,12.83
2018-11-27T07:10:42.172Z,10.43
2018-11-27T07:13:20.241Z,11.03
2018-11-27T07:15:50.338Z,9.60
2018-11-27T07:18:20.974Z,12.03
2018-11-27T07:20:55.657Z,10.50
2018-11-27T07:23:24.521Z,10.40
2018-11-27T07:25:53.348Z,12.10
2018-11-27T07:28:22.130Z,11.60
2018-11-27T07:30:50.998Z,11.67
2018-11-27T07:33:20.019Z,10.10
2018-11-27T07:35:48.882Z,10.90
2018-11-27T07:38:17.695Z,11.37
2018-11-27T07:40:46.522Z,8.60
2018-11-27T07:43:15.346Z,12.60
2018-11-27T07:45:44.143Z,10.20
2018-11-27T07:48:13.008Z,11.40
2018-11-27T07:50:41.810Z,11.10
2018-11-27T07:53:10.628Z,10.90
2018-11-27T07:55:39.454Z,10.83
2018-11-27T07:58:08.306Z,10.13
2018-11-27T08:00:37.151Z,10.80
2018-11-27T08:03:06.584Z,11.37
2018-11-27T08:05:38.320Z,10.40
2018-11-27T08:08:08.720Z,9.97
2018-11-27T08:10:37.861Z,14.33
2018-11-27T08:13:07.311Z,10.40
2018-11-27T08:15:36.113Z,9.70
2018-11-27T08:18:04.986Z,10.63
2018-11-27T08:20:34.405Z,11.67
2018-11-27T08:23:03.820Z,11.30
2018-11-27T08:25:32.677Z,10.37
2018-11-27T08:28:01.489Z,11.27
2018-11-27T08:30:30.300Z,10.93
2018-11-27T08:32:59.150Z,12.37
2018-11-27T08:35:29.006Z,11.10
2018-11-27T08:37:58.971Z,11.83
2018-11-27T08:40:29.245Z,11.83
2018-11-27T08:42:58.093Z,12.53
2018-11-27T08:45:27.157Z,11.20
2018-11-27T08:47:56.338Z,11.43
2018-11-27T08:50:26.324Z,12.53
2018-11-27T08:52:59.220Z,11.53
2018-11-27T08:55:29.527Z,11.33
2018-11-27T08:57:58.953Z,12.27
2018-11-27T09:00:27.786Z,10.73
2018-11-27T09:02:56.538Z,11.13
2018-11-27T09:05:25.343Z,11.87
2018-11-27T09:07:54.122Z,11.50
2018-11-27T09:10:24.238Z,11.30
2018-11-27T09:12:53.069Z,11.87
2018-11-27T09:15:22.622Z,11.00
2018-11-27T09:17:57.166Z,11.87
2018-11-27T09:20:25.900Z,12.13
2018-11-27T09:22:54.671Z,10.33
2018-11-27T09:25:23.431Z,13.20
2018-11-27T09:27:52.263Z,10.80
2018-11-27T09:30:23.224Z,11.30
2018-11-27T09:32:52.339Z,11.57
2018-11-27T09:35:21.172Z,11.63
2018-11-27T09:37:49.958Z,11.80
2018-11-27T09:40:19.533Z,11.03
2018-11-27T09:42:48.350Z,11.33
2018-11-27T09:45:20.494Z,11.80
2018-11-27T09:47:54.579Z,10.37
2018-11-27T09:50:23.348Z,13.13
2018-11-27T09:52:52.123Z,11.03
2018-11-27T09:55:24.936Z,12.13
2018-11-27T09:57:58.812Z,12.77
2018-11-27T10:00:24.354Z,11.57
2018-11-27T10:02:54.411Z,12.20
2018-11-27T10:05:23.181Z,12.40
2018-11-27T10:07:51.988Z,11.40
2018-11-27T10:10:21.752Z,11.53
2018-11-27T10:12:50.610Z,10.43
2018-11-27T10:15:21.192Z,12.43
2018-11-27T10:17:51.427Z,11.90
2018-11-27T10:20:21.282Z,13.73
2018-11-27T10:22:50.054Z,13.80
2018-11-27T10:25:18.819Z,11.17
2018-11-27T10:27:47.611Z,11.03
2018-11-27T10:30:19.594Z,12.07
2018-11-27T10:32:49.563Z,14.00
2018-11-27T10:35:20.653Z,13.20
2018-11-27T10:37:49.392Z,11.73
2018-11-27T10:40:18.167Z,11.00
2018-11-27T10:42:47.135Z,12.33
2018-11-27T10:45:16.833Z,13.27
2018-11-27T10:47:47.571Z,11.40
2018-11-27T10:50:17.214Z,11.07
2018-11-27T10:52:47.049Z,10.77
2018-11-27T10:55:16.798Z,11.07
2018-11-27T10:57:45.606Z,11.67
2018-11-27T11:00:20.971Z,12.90
2018-11-27T11:02:55.200Z,11.93
2018-11-27T11:05:26.282Z,10.13
2018-11-27T11:07:55.093Z,12.37
2018-11-27T11:10:23.890Z,11.57
2018-11-27T11:12:52.661Z,12.87
2018-11-27T11:15:21.464Z,10.73
2018-11-27T11:17:50.218Z,11.67
2018-11-27T11:20:19.441Z,11.93
2018-11-27T11:22:48.198Z,12.43
2018-11-27T11:25:20.152Z,11.73
2018-11-27T11:27:53.278Z,11.33
2018-11-27T11:30:22.550Z,10.37
2018-11-27T11:32:51.339Z,12.33
2018-11-27T11:35:20.118Z,12.57
2018-11-27T11:37:49.448Z,12.70
2018-11-27T11:40:20.567Z,11.00
2018-11-27T11:42:50.396Z,13.37
2018-11-27T11:45:19.175Z,11.47
2018-11-27T11:47:48.003Z,13.03
2018-11-27T11:50:19.200Z,13.33
2018-11-27T11:52:53.208Z,13.77
2018-11-27T11:55:22.278Z,12.97
2018-11-27T11:57:51.091Z,13.43
2018-11-27T12:00:26.845Z,11.60
2018-11-27T12:02:55.643Z,13.23
2018-11-27T12:05:25.124Z,13.87
2018-11-27T12:07:53.207Z,14.30
2018-11-27T12:10:21.983Z,13.50
2018-11-27T12:12:50.927Z,14.13
2018-11-27T12:15:20.005Z,13.30
2018-11-27T12:17:49.152Z,14.53
2018-11-27T12:20:18.983Z,14.50
2018-11-27T12:22:50.936Z,11.93
2018-11-27T12:25:24.100Z,13.83
2018-11-27T12:27:48.684Z,12.80
2018-11-27T12:30:22.122Z,13.57
2018-11-27T12:32:51.050Z,15.00
2018-11-27T12:35:20.379Z,12.67
2018-11-27T12:37:49.390Z,13.63
2018-11-27T12:40:21.103Z,11.33
2018-11-27T12:42:50.038Z,12.03
2018-11-27T12:45:20.118Z,13.87
2018-11-27T12:47:48.945Z,13.20
2018-11-27T12:50:22.925Z,13.13
2018-11-27T12:52:51.730Z,13.73
2018-11-27T12:55:21.810Z,15.03
2018-11-27T12:57:50.654Z,15.43
2018-11-27T13:00:21.691Z,13.30
2018-11-27T13:02:50.692Z,14.30
2018-11-27T13:05:20.791Z,16.47
2018-11-27T13:07:50.375Z,16.90
2018-11-27T13:10:19.159Z,16.97
2018-11-27T13:12:47.929Z,17.27
2018-11-27T13:15:18.785Z,15.70
2018-11-27T13:17:48.604Z,16.90
2018-11-27T13:20:18.622Z,15.63
2018-11-27T13:22:47.977Z,21.77
2018-11-27T13:25:19.084Z,20.80
2018-11-27T13:27:48.391Z,19.37
2018-11-27T13:30:20.538Z,18.53
2018-11-27T13:37:38.404Z,17.07
2018-11-27T13:40:08.744Z,18.13
2018-11-27T13:42:37.519Z,20.43
2018-11-27T13:45:10.526Z,18.97
2018-11-27T13:47:39.307Z,18.83
2018-11-27T13:50:10.263Z,18.27
2018-11-27T13:52:39.254Z,17.10
2018-11-27T13:55:12.089Z,20.50
2018-11-27T13:57:40.848Z,20.30
2018-11-27T14:00:12.084Z,18.50
2018-11-27T14:02:41.654Z,17.90
2018-11-27T14:05:13.014Z,17.27
2018-11-27T14:07:41.812Z,18.00
2018-11-27T14:10:11.835Z,18.17
2018-11-27T14:12:40.613Z,17.90
2018-11-27T14:15:13.397Z,18.30
2018-11-27T14:17:42.196Z,19.97
2018-11-27T14:20:11.905Z,18.57
2018-11-27T14:22:40.679Z,19.50
2018-11-27T14:25:11.033Z,17.33
2018-11-27T14:27:39.789Z,18.40
2018-11-27T14:30:11.455Z,19.33
2018-11-27T14:32:40.223Z,20.83
2018-11-27T14:35:09.042Z,18.90
2018-11-27T14:37:37.815Z,20.23
2018-11-27T14:40:11.134Z,22.67
2018-11-27T14:42:39.886Z,20.33
2018-11-27T14:45:14.487Z,20.80
2018-11-27T14:47:43.833Z,19.33
2018-11-27T14:50:12.779Z,22.73
2018-11-27T14:52:41.550Z,22.30
2018-11-27T14:55:11.808Z,22.10
2018-11-27T14:57:40.574Z,23.50
2018-11-27T15:00:11.479Z,23.07
2018-11-27T15:02:40.258Z,26.03
2018-11-27T15:05:11.899Z,24.50
2018-11-27T15:07:40.743Z,24.40
2018-11-27T15:10:11.014Z,23.20
2018-11-27T15:12:39.843Z,25.77
2018-11-27T15:15:10.761Z,24.93
2018-11-27T15:17:39.560Z,25.53
2018-11-27T15:20:21.008Z,25.73
2018-11-27T15:22:49.839Z,26.90
2018-11-27T15:25:18.696Z,26.37
2018-11-27T15:27:47.625Z,24.50
2018-11-27T15:30:20.627Z,26.20
2018-11-27T15:32:50.136Z,24.30
2018-11-27T15:35:18.898Z,26.07
2018-11-27T15:37:47.721Z,28.73
2018-11-27T15:40:18.063Z,30.00
2018-11-27T15:42:46.898Z,29.47
2018-11-27T15:45:17.735Z,29.00
2018-11-27T15:47:46.799Z,29.47
2018-11-27T15:50:15.629Z,25.77
2018-11-27T15:52:44.995Z,26.93
2018-11-27T15:55:15.662Z,28.17
2018-11-27T15:57:44.877Z,30.23
2018-11-27T16:00:15.817Z,26.60
2018-11-27T16:02:44.728Z,27.70
2018-11-27T16:05:13.986Z,29.53
2018-11-27T16:07:42.866Z,29.60
2018-11-27T16:10:16.320Z,25.87
2018-11-27T16:12:45.570Z,28.63
2018-11-27T16:15:16.683Z,26.10
2018-11-27T16:17:45.530Z,25.47
2018-11-27T16:20:15.472Z,29.63
2018-11-27T16:22:46.659Z,27.40
2018-11-27T16:25:20.304Z,25.93
2018-11-27T16:27:49.166Z,28.60
2018-11-27T16:30:20.027Z,29.67
2018-11-27T16:32:48.896Z,27.63
2018-11-27T16:35:17.977Z,31.60
2018-11-27T16:37:49.170Z,28.20
2018-11-27T16:40:20.276Z,30.10
2018-11-27T16:42:49.084Z,30.07
2018-11-27T16:45:19.939Z,30.97
2018-11-27T16:47:48.923Z,31.27
2018-11-27T16:50:18.417Z,26.73
2018-11-27T16:52:47.418Z,29.27
2018-11-27T16:55:17.937Z,28.33
2018-11-27T16:57:46.838Z,27.73
2018-11-27T17:00:21.989Z,27.80
2018-11-27T17:02:52.050Z,27.90
2018-11-27T17:05:20.910Z,26.33
2018-11-27T17:07:49.748Z,25.87
2018-11-27T17:10:19.970Z,26.47
2018-11-27T17:12:51.001Z,23.40
2018-11-27T17:15:57.484Z,26.00
2018-11-27T17:18:26.340Z,24.63
2018-11-27T17:20:55.153Z,23.07
2018-11-27T17:23:28.073Z,22.67
2018-11-27T17:26:03.983Z,23.10
2018-11-27T17:28:30.601Z,21.20
2018-11-27T17:31:08.917Z,23.87
2018-11-27T17:33:39.326Z,22.17
2018-11-27T17:36:09.059Z,23.40
2018-11-27T17:38:38.017Z,23.40
2018-11-27T17:41:12.467Z,23.57
2018-11-27T17:43:42.015Z,22.30
2018-11-27T17:46:12.334Z,22.53
2018-11-27T17:48:41.505Z,21.77
2018-11-27T17:51:29.665Z,24.87
2018-11-27T17:56:48.398Z,24.67
2018-11-27T17:59:20.150Z,25.23
2018-11-27T18:01:54.688Z,25.57
2018-11-27T18:04:26.048Z,27.83
2018-11-27T18:06:58.263Z,25.47
2018-11-27T18:09:28.228Z,26.27
2018-11-27T18:11:58.528Z,30.23
2018-11-27T18:14:29.853Z,30.60
2018-11-27T18:17:00.733Z,27.47
2018-11-27T18:19:35.269Z,26.63
2018-11-27T18:22:05.247Z,29.23
2018-11-27T18:24:36.238Z,32.20
2018-11-27T18:27:05.175Z,30.23
2018-11-27T18:29:35.263Z,28.03
2018-11-27T18:32:04.356Z,29.13
2018-11-27T18:34:33.892Z,29.00
2018-11-27T18:37:03.684Z,31.90
2018-11-27T18:39:32.699Z,30.10
2018-11-27T18:42:13.851Z,33.07
2018-11-27T18:47:39.653Z,31.57
2018-11-27T18:50:09.674Z,31.73
2018-11-27T18:52:38.638Z,31.60
2018-11-27T18:55:09.751Z,34.33
2018-11-27T18:57:43.469Z,34.63
2018-11-27T19:00:19.653Z,36.33
2018-11-27T19:02:53.126Z,36.30
2018-11-27T19:05:26.942Z,36.00
2018-11-27T19:07:55.727Z,33.07
2018-11-27T19:10:31.615Z,38.67
2018-11-27T19:13:00.776Z,39.83
2018-11-27T19:15:45.429Z,37.63
2018-11-27T19:18:43.250Z,40.27
2018-11-27T19:21:13.368Z,39.63
2018-11-27T19:23:45.411Z,34.70
2018-11-27T19:26:14.785Z,40.17
2018-11-27T19:28:43.709Z,38.17
2018-11-27T19:31:12.726Z,38.20
2018-11-27T19:33:41.587Z,37.40
2018-11-27T19:36:10.368Z,36.87
2018-11-27T19:38:39.167Z,41.57
2018-11-27T19:41:07.943Z,43.30
2018-11-27T19:43:36.766Z,40.27
2018-11-27T19:46:05.585Z,38.50
2018-11-27T19:48:34.423Z,37.70
2018-11-27T19:51:03.375Z,39.33
2018-11-27T19:53:33.371Z,39.20
2018-11-27T19:56:02.175Z,39.10
2018-11-27T19:58:35.491Z,40.63
2018-11-27T20:01:10.842Z,36.00
2018-11-27T20:03:45.382Z,39.40
2018-11-27T20:06:14.247Z,39.87
2018-11-27T20:08:43.403Z,42.13
2018-11-27T20:11:15.764Z,39.70
2018-11-27T20:13:44.593Z,38.50
2018-11-27T20:16:13.403Z,39.13
2018-11-27T20:18:42.215Z,33.43
2018-11-27T20:21:12.011Z,33.07
2018-11-27T20:23:40.857Z,36.10
2018-11-27T20:26:09.756Z,32.87
2018-11-27T20:28:38.612Z,35.37
2018-11-27T20:31:07.449Z,35.33
2018-11-27T20:33:36.555Z,30.27
2018-11-27T20:36:08.568Z,30.97
2018-11-27T20:38:37.531Z,27.57
2018-11-27T20:41:07.297Z,28.53
2018-11-27T20:43:36.122Z,22.37
2018-11-27T20:46:05.892Z,25.53
2018-11-27T20:48:34.735Z,24.03
2018-11-27T20:51:03.952Z,25.63
2018-11-27T20:53:32.508Z,22.67
2018-11-27T20:56:02.325Z,24.73
2018-11-27T20:58:31.165Z,23.03
2018-11-27T21:00:59.988Z,23.00
2018-11-27T21:03:30.089Z,22.03
2018-11-27T21:05:59.985Z,22.10
2018-11-27T21:08:31.227Z,21.33
2018-11-27T21:11:00.039Z,18.10
2018-11-27T21:13:32.113Z,17.77
2018-11-27T21:16:01.904Z,20.33
2018-11-27T21:18:42.675Z,19.93
2018-11-27T21:21:13.535Z,18.40
2018-11-27T21:23:43.641Z,18.00
2018-11-27T21:26:12.713Z,16.87
2018-11-27T21:28:41.604Z,17.90
2018-11-27T21:31:10.518Z,17.37
2018-11-27T21:33:39.387Z,16.90
2018-11-27T21:36:10.388Z,16.40
2018-11-27T21:38:42.250Z,17.23
2018-11-27T21:41:18.321Z,18.17
2018-11-27T21:44:16.399Z,17.57
2018-11-27T21:46:45.381Z,18.83
2018-11-27T21:49:14.619Z,19.00
2018-11-27T21:51:44.062Z,17.00
2018-11-27T21:54:14.254Z,15.90
2018-11-27T21:56:45.307Z,15.43
2018-11-27T21:59:17.414Z,19.33
2018-11-27T22:01:48.818Z,16.07
2018-11-27T22:04:19.043Z,15.23
2018-11-27T22:06:49.194Z,15.23
2018-11-27T22:09:18.167Z,17.03
2018-11-27T22:11:50.790Z,15.50
2018-11-27T22:14:21.548Z,16.30
2018-11-27T22:16:50.485Z,17.07
2018-11-27T22:19:20.517Z,16.23
2018-11-27T22:21:49.432Z,15.47
2018-11-27T22:24:19.278Z,16.10
2018-11-27T22:26:48.162Z,16.63
2018-11-27T22:29:17.067Z,15.33
2018-11-27T22:31:46.342Z,16.40
2018-11-27T22:34:15.261Z,15.27
2018-11-27T22:36:46.626Z,16.30
2018-11-27T22:39:22.998Z,15.60
2018-11-27T22:41:51.944Z,13.37
2018-11-27T22:44:23.586Z,17.07
2018-11-27T22:46:52.567Z,15.67
2018-11-27T22:49:21.421Z,16.10
2018-11-27T22:51:50.294Z,16.97
2018-11-27T22:54:19.404Z,15.10
2018-11-27T22:56:51.710Z,14.33
2018-11-27T22:59:21.964Z,15.83
2018-11-27T23:01:50.787Z,14.60
2018-11-27T23:04:20.527Z,14.10
2018-11-27T23:06:50.285Z,14.10
2018-11-27T23:09:19.149Z,16.13
2018-11-27T23:11:47.983Z,15.17
2018-11-27T23:14:16.826Z,16.87
2018-11-27T23:16:46.083Z,16.20
2018-11-27T23:19:14.966Z,15.40
2018-11-27T23:21:45.283Z,14.13
2018-11-27T23:24:14.103Z,15.37
2018-11-27T23:26:44.477Z,14.77
2018-11-27T23:29:13.400Z,15.63
2018-11-27T23:31:42.514Z,15.60
2018-11-27T23:34:11.723Z,15.87
2018-11-27T23:36:41.013Z,15.30
2018-11-27T23:39:09.823Z,14.53
2018-11-27T23:41:38.650Z,14.07
2018-11-27T23:44:07.950Z,17.60
2018-11-27T23:46:36.760Z,14.40
2018-11-27T23:49:07.626Z,14.43
2018-11-27T23:51:37.449Z,14.87
2018-11-27T23:54:06.773Z,14.27
2018-11-27T23:56:35.594Z,14.53
2018-11-27T23:59:04.465Z,15.07
